Time;durP1;ratioP1;P1;durP2;ratioP2;P2;SDS_P1;SDS_P2;PMS_P1;PMS_P2;Temp;Humidity;BMP_temperature;BMP_pressure;BME280_temperature;BME280_humidity;BME280_pressure;Samples;Min_cycle;Max_cycle;Signal;HPM_P1;HPM_P2
2022/03/24 00:01:37;;;;;;;1999.90;999.90;;;;;;;7.38;49.17;102493.91;15501693;28;20061;-57
2022/03/24 00:09:09;;;;;;;1999.90;999.90;;;;;;;7.19;49.84;102485.22;15495281;28;20034;-59
2022/03/24 00:16:47;;;;;;;1999.90;999.90;;;;;;;7.03;50.08;102485.38;15500652;28;20050;-59
2022/03/24 00:24:20;;;;;;;1999.90;999.90;;;;;;;6.81;50.31;102483.53;15499634;28;20124;-59
2022/03/24 00:31:54;;;;;;;1999.90;999.90;;;;;;;6.67;50.68;102479.53;15502719;28;20096;-59
2022/03/24 00:39:26;;;;;;;;;;;;;;;6.69;51.16;102480.09;15500005;28;20488;-58
2022/03/24 00:47:01;;;;;;;1999.90;999.90;;;;;;;6.31;51.88;102481.94;15506936;28;19929;-59
2022/03/24 00:54:34;;;;;;;1999.90;999.90;;;;;;;6.24;52.06;102474.94;15499975;28;20077;-58
2022/03/24 01:02:10;;;;;;;1999.90;999.90;;;;;;;6.18;52.33;102470.47;15516071;28;20109;-57
2022/03/24 01:09:45;;;;;;;1999.90;999.90;;;;;;;6.05;52.89;102466.16;15508297;28;20048;-58
2022/03/24 01:17:18;;;;;;;1999.90;999.90;;;;;;;5.87;53.76;102469.25;15514696;28;20049;-60
2022/03/24 01:24:50;;;;;;;1999.90;999.90;;;;;;;5.76;53.42;102462.75;15521189;28;20033;-57
2022/03/24 01:32:26;;;;;;;1999.90;999.90;;;;;;;5.59;53.61;102462.78;15517256;28;20054;-58
2022/03/24 01:39:58;;;;;;;1999.90;999.90;;;;;;;5.41;54.46;102460.31;15504656;28;20042;-58
2022/03/24 01:47:32;;;;;;;1999.90;999.90;;;;;;;5.29;54.61;102456.84;15504180;28;20141;-58
2022/03/24 01:55:09;;;;;;;1999.90;999.90;;;;;;;5.16;54.48;102447.81;15504706;28;20042;-58
2022/03/24 02:02:50;;;;;;;1999.90;999.90;;;;;;;5.06;55.47;102449.59;15495295;28;20070;-56
2022/03/24 02:10:25;;;;;;;1999.90;999.90;;;;;;;4.97;55.19;102442.81;15506850;28;20072;-57
2022/03/24 02:17:58;;;;;;;1999.90;999.90;;;;;;;4.89;54.86;102446.84;15507529;28;20639;-61
2022/03/24 02:25:33;;;;;;;1999.90;999.90;;;;;;;4.80;55.20;102443.69;15506859;28;20066;-57
2022/03/24 02:33:06;;;;;;;1999.90;999.90;;;;;;;4.73;55.40;102439.41;15497466;28;20590;-60
2022/03/24 02:40:39;;;;;;;1999.90;999.90;;;;;;;4.64;55.97;102434.28;15489349;28;20042;-57
2022/03/24 02:48:11;;;;;;;1999.90;999.90;;;;;;;4.57;55.79;102428.09;15484918;28;20053;-58
2022/03/24 02:55:52;;;;;;;1999.90;999.90;;;;;;;4.50;56.53;102424.66;15500457;28;20396;-57
2022/03/24 03:03:27;;;;;;;1999.90;999.90;;;;;;;4.31;57.01;102437.03;15513114;28;20492;-58
2022/03/24 03:11:01;;;;;;;1999.90;999.90;;;;;;;4.19;57.30;102439.03;15510141;28;20117;-58
2022/03/24 03:18:41;;;;;;;1999.90;999.90;;;;;;;4.11;57.84;102436.66;15498605;28;20109;-57
2022/03/24 03:26:24;;;;;;;1999.90;999.90;;;;;;;4.13;58.57;102445.53;15497348;28;20105;-58
2022/03/24 03:33:59;;;;;;;1999.90;999.90;;;;;;;4.15;58.39;102435.91;15500727;28;20499;-57
2022/03/24 03:41:34;;;;;;;1999.90;999.90;;;;;;;4.11;58.65;102454.09;15502280;28;20054;-59
2022/03/24 03:49:11;;;;;;;1999.90;999.90;;;;;;;4.14;58.76;102447.22;15507106;28;20034;-58
2022/03/24 03:56:54;;;;;;;1999.90;999.90;;;;;;;4.05;59.18;102447.63;15487442;28;20455;-57
2022/03/24 04:04:29;;;;;;;1999.90;999.90;;;;;;;3.92;59.68;102442.41;15496575;28;20161;-56
2022/03/24 04:12:10;;;;;;;1999.90;999.90;;;;;;;3.91;60.28;102445.41;15497388;28;20104;-57
2022/03/24 04:19:45;;;;;;;1999.90;999.90;;;;;;;3.81;61.19;102457.09;15504235;28;20735;-57
2022/03/24 04:27:19;;;;;;;1999.90;999.90;;;;;;;3.90;61.04;102447.34;15531298;28;20048;-59
2022/03/24 04:34:51;;;;;;;1999.90;999.90;;;;;;;3.84;61.06;102444.72;15512862;28;20047;-56
2022/03/24 04:42:27;;;;;;;1999.90;999.90;;;;;;;3.86;60.79;102446.16;15507359;28;20117;-58
2022/03/24 04:49:59;;;;;;;1999.90;999.90;;;;;;;3.75;60.94;102447.00;15554363;28;20043;-57
2022/03/24 04:57:33;;;;;;;1999.90;999.90;;;;;;;3.63;60.81;102457.25;15561167;28;20077;-57
2022/03/24 05:05:09;;;;;;;1999.90;999.90;;;;;;;3.62;60.57;102447.31;15514376;28;20458;-58
2022/03/24 05:12:42;;;;;;;1999.90;999.90;;;;;;;3.66;60.37;102443.81;15495445;28;20050;-56
2022/03/24 05:20:15;;;;;;;1999.90;999.90;;;;;;;3.58;59.99;102449.72;15491179;28;20042;-55
2022/03/24 05:27:48;;;;;;;1999.90;999.90;;;;;;;3.90;59.81;102455.63;15493988;28;20112;-58
2022/03/24 05:35:23;;;;;;;1999.90;999.90;;;;;;;4.32;58.69;102453.38;15497236;28;20038;-57
2022/03/24 05:42:56;;;;;;;1999.90;999.90;;;;;;;4.75;57.94;102456.59;15498411;28;20039;-57
2022/03/24 05:50:31;;;;;;;1999.90;999.90;;;;;;;4.83;57.76;102459.78;15510481;28;20064;-58
2022/03/24 05:58:18;;;;;;;1999.90;999.90;;;;;;;4.63;57.97;102463.03;15516828;28;20125;-58
2022/03/24 06:05:50;;;;;;;1999.90;999.90;;;;;;;4.78;58.03;102462.44;15548906;28;20046;-58
2022/03/24 06:13:25;;;;;;;1999.90;999.90;;;;;;;4.90;58.22;102477.03;15557336;28;20527;-55
2022/03/24 06:20:59;;;;;;;1999.90;999.90;;;;;;;5.16;58.10;102481.03;15523756;28;20570;-62
2022/03/24 06:28:35;;;;;;;1999.90;999.90;;;;;;;5.79;57.39;102476.06;15515739;28;20477;-58
2022/03/24 06:36:15;;;;;;;1999.90;999.90;;;;;;;6.60;56.08;102481.69;15521130;28;20516;-59
2022/03/24 06:44:07;;;;;;;1999.90;999.90;;;;;;;8.40;50.89;102497.16;15552293;28;20052;-58
2022/03/24 06:51:43;;;;;;;1999.90;999.90;;;;;;;10.28;46.57;102498.75;15558570;28;20046;-57
2022/03/24 06:59:18;;;;;;;1999.90;999.90;;;;;;;11.29;45.75;102499.94;15504713;28;20050;-59
2022/03/24 07:06:53;;;;;;;1999.90;999.90;;;;;;;12.24;43.02;102503.84;15537284;28;20049;-60
2022/03/24 07:14:29;;;;;;;1999.90;999.90;;;;;;;12.37;43.04;102506.72;15461703;22;20051;-72
2022/03/24 07:22:02;;;;;;;;;;;;;;;11.69;44.77;102497.81;15405135;28;20050;-72
2022/03/24 07:29:36;;;;;;;1999.90;999.90;;;;;;;11.81;45.49;102504.69;15407271;28;20012;-72
2022/03/24 07:37:08;;;;;;;1999.90;999.90;;;;;;;13.78;41.35;102513.03;15407997;28;20102;-76
2022/03/24 07:44:42;;;;;;;1999.90;999.90;;;;;;;14.15;40.17;102511.94;15356908;28;20050;-73
2022/03/24 07:52:15;;;;;;;1999.90;999.90;;;;;;;14.09;39.99;102515.19;15403987;28;20047;-73
2022/03/24 07:59:48;;;;;;;1999.90;999.90;;;;;;;15.11;37.83;102510.00;15482669;23;20145;-61
2022/03/24 08:07:21;;;;;;;;;;;;;;;14.80;37.55;102516.41;15484584;28;20461;-59
2022/03/24 08:14:54;;;;;;;1999.90;999.90;;;;;;;15.58;37.11;102516.91;15462759;28;19987;-59
2022/03/24 08:22:26;;;;;;;1999.90;999.90;;;;;;;15.52;37.37;102513.38;15494703;28;20513;-60
2022/03/24 08:30:00;;;;;;;1999.90;999.90;;;;;;;16.89;36.00;102519.72;15509894;28;20038;-61
2022/03/24 08:37:32;;;;;;;1999.90;999.90;;;;;;;18.13;33.74;102531.97;15493621;28;20059;-60
2022/03/24 08:45:07;;;;;;;1999.90;999.90;;;;;;;19.33;30.93;102529.38;15490581;28;20062;-61
2022/03/24 08:52:41;;;;;;;1999.90;999.90;;;;;;;18.65;33.83;102540.13;15492267;28;20042;-62
2022/03/24 09:00:17;;;;;;;1999.90;999.90;;;;;;;19.93;31.62;102538.34;15493404;28;20042;-63
2022/03/24 09:07:51;;;;;;;1999.90;999.90;;;;;;;21.51;29.17;102543.66;15492293;28;20129;-61
2022/03/24 09:15:26;;;;;;;1999.90;999.90;;;;;;;21.38;29.40;102544.09;15484538;28;20061;-62
2022/03/24 09:22:59;;;;;;;1999.90;999.90;;;;;;;21.94;29.13;102552.47;15519851;28;20050;-62
2022/03/24 09:30:32;;;;;;;181.98;168.40;;;;;;;21.21;29.83;102550.88;15500675;28;20046;-60
2022/03/24 09:38:05;;;;;;;631.30;370.77;;;;;;;22.53;27.35;102560.03;15504130;28;20057;-62
2022/03/24 09:45:40;;;;;;;136.33;125.03;;;;;;;23.37;25.20;102551.72;15504242;28;20042;-62
2022/03/24 09:53:13;;;;;;;111.30;101.22;;;;;;;22.69;25.58;102555.94;15503339;28;20118;-62
2022/03/24 10:00:47;;;;;;;;;;;;;;;24.42;24.05;102551.16;15502870;28;20104;-62
2022/03/24 10:08:21;;;;;;;100.03;90.97;;;;;;;24.66;23.70;102540.47;15502887;28;19945;-61
2022/03/24 10:15:55;;;;;;;1999.90;999.90;;;;;;;23.64;22.58;102546.13;15503475;28;20046;-61
2022/03/24 10:23:27;;;;;;;1999.90;999.90;;;;;;;24.21;21.14;102542.22;15496247;28;20499;-62
2022/03/24 10:31:03;;;;;;;1999.90;999.90;;;;;;;24.31;21.15;102541.59;15502048;28;20043;-60
2022/03/24 10:38:39;;;;;;;1999.90;999.90;;;;;;;23.46;22.14;102528.69;15500784;28;20046;-62
2022/03/24 10:46:18;;;;;;;1999.90;999.90;;;;;;;25.24;20.66;102528.59;15499911;28;20466;-61
2022/03/24 10:53:50;;;;;;;1999.90;999.90;;;;;;;25.25;18.85;102521.69;15488402;28;20038;-61
2022/03/24 11:01:26;;;;;;;1999.90;999.90;;;;;;;26.12;20.85;102514.34;15476014;28;20042;-61
2022/03/24 11:09:01;;;;;;;1999.90;999.90;;;;;;;25.02;22.37;102516.09;15485279;28;20459;-61
2022/03/24 11:16:35;;;;;;;1999.90;999.90;;;;;;;27.50;20.25;102515.41;15504423;28;20042;-61
2022/03/24 11:24:08;;;;;;;1999.90;999.90;;;;;;;26.65;18.28;102515.91;15503156;28;20109;-61
2022/03/24 11:31:53;;;;;;;1999.90;999.90;;;;;;;26.37;18.35;102497.38;15495011;28;20066;-61
2022/03/24 11:39:31;;;;;;;1999.90;999.90;;;;;;;25.94;19.85;102486.81;15510586;28;20398;-61
2022/03/24 11:47:12;;;;;;;1999.90;999.90;;;;;;;25.96;21.09;102481.53;15509523;28;20046;-62
2022/03/24 11:54:54;;;;;;;1999.90;999.90;;;;;;;26.28;18.27;102479.72;15495928;28;20050;-62
2022/03/24 12:02:28;;;;;;;1999.90;999.90;;;;;;;26.83;17.44;102473.06;15494068;28;20109;-61
2022/03/24 12:10:02;;;;;;;1999.90;999.90;;;;;;;28.02;16.36;102456.44;15491003;28;20322;-62
2022/03/24 12:17:35;;;;;;;1999.90;999.90;;;;;;;27.26;16.43;102456.81;15487843;28;20515;-62
2022/03/24 12:25:26;;;;;;;1999.90;999.90;;;;;;;26.23;16.83;102447.78;15503212;28;20097;-62
2022/03/24 12:33:08;;;;;;;1999.90;999.90;;;;;;;25.96;18.55;102432.91;15487028;28;20439;-62
2022/03/24 12:41:21;;;;;;;1999.90;999.90;;;;;;;26.01;16.90;102432.53;15494541;28;20069;-62
2022/03/24 12:48:59;;;;;;;1999.90;999.90;;;;;;;29.15;14.72;102417.03;15470091;28;20051;-61
2022/03/24 12:56:33;;;;;;;1999.90;999.90;;;;;;;30.90;13.44;102413.19;15507941;28;20154;-61
2022/03/24 13:04:08;;;;;;;1999.90;999.90;;;;;;;30.25;14.59;102405.78;15505685;28;20518;-61
2022/03/24 13:11:55;;;;;;;1999.90;999.90;;;;;;;29.79;14.49;102405.00;15503638;28;20050;-60
2022/03/24 13:19:43;;;;;;;1999.90;999.90;;;;;;;32.95;12.58;102389.56;15506152;28;20388;-61
2022/03/24 13:27:20;;;;;;;1999.90;999.90;;;;;;;32.27;12.26;102380.72;15504771;28;20510;-60
2022/03/24 13:34:58;;;;;;;1999.90;999.90;;;;;;;33.48;11.59;102381.66;15483152;28;20069;-61
2022/03/24 13:42:30;;;;;;;1999.90;999.90;;;;;;;34.14;12.50;102377.38;15481030;22;20063;-57
2022/03/24 13:50:06;;;;;;;1999.90;999.90;;;;;;;27.13;15.08;102375.34;15461976;28;20627;-59
2022/03/24 13:57:56;;;;;;;51.58;46.40;;;;;;;22.05;20.55;102361.09;15443508;28;20046;-63
2022/03/24 14:05:54;;;;;;;118.93;110.65;;;;;;;20.68;20.88;102352.41;15480248;28;20042;-62
2022/03/24 14:13:27;;;;;;;95.05;88.28;;;;;;;20.75;21.14;102340.44;15462342;28;20076;-61
2022/03/24 14:21:01;;;;;;;131.43;122.75;;;;;;;21.43;20.69;102331.66;15448626;28;20141;-63
2022/03/24 14:28:36;;;;;;;78.30;71.45;;;;;;;20.87;22.08;102325.34;15429444;28;20224;-63
2022/03/24 14:36:10;;;;;;;100.28;93.50;;;;;;;20.26;21.63;102319.97;15441072;28;20054;-62
2022/03/24 14:43:44;;;;;;;121.28;113.00;;;;;;;20.96;21.47;102303.28;15437513;28;20762;-64
2022/03/24 14:51:17;;;;;;;140.95;131.68;;;;;;;20.91;20.34;102295.03;15471456;28;20542;-58
2022/03/24 14:58:50;;;;;;;113.45;105.78;;;;;;;20.95;21.68;102295.97;15436561;28;20043;-57
2022/03/24 15:06:23;;;;;;;66.20;60.53;;;;;;;20.26;22.30;102286.78;15456542;28;20424;-61
2022/03/24 15:21:48;;;;;;;53.65;48.78;;;;;;;19.50;24.13;102276.38;15431208;28;20507;-55
2022/03/24 15:29:20;;;;;;;62.90;57.40;;;;;;;19.42;23.22;102289.47;15389595;28;20049;-56
2022/03/24 15:36:54;;;;;;;64.07;58.80;;;;;;;19.45;22.83;102276.63;15414809;28;20469;-59
2022/03/24 15:44:26;;;;;;;101.35;93.95;;;;;;;19.75;22.08;102275.16;15397036;28;20050;-57
2022/03/24 15:52:00;;;;;;;101.30;94.20;;;;;;;19.84;22.43;102278.69;15430698;28;20053;-60
2022/03/24 15:59:32;;;;;;;59.33;53.97;;;;;;;18.83;23.36;102267.31;15443512;28;20081;-58
2022/03/24 16:07:06;;;;;;;79.63;71.93;;;;;;;19.41;24.57;102273.69;15448612;28;20105;-57
2022/03/24 16:14:38;;;;;;;62.08;56.75;;;;;;;18.87;24.01;102270.28;15454521;28;20102;-58
2022/03/24 16:22:12;;;;;;;55.95;51.42;;;;;;;19.12;23.38;102263.44;15401259;28;20038;-63
2022/03/24 16:29:46;;;;;;;57.90;52.92;;;;;;;18.88;23.33;102269.09;15411523;28;20046;-58
2022/03/24 16:37:20;;;;;;;70.90;65.63;;;;;;;18.40;24.24;102270.63;15428659;28;20111;-57
2022/03/24 16:44:53;;;;;;;180.38;169.02;;;;;;;18.31;25.58;102276.38;15462943;28;20038;-60
2022/03/24 16:52:26;;;;;;;89.07;82.47;;;;;;;18.40;27.04;102271.44;15448943;28;20046;-60
2022/03/24 17:00:00;;;;;;;149.65;140.10;;;;;;;18.19;27.15;102270.69;15448497;28;20113;-59
2022/03/24 17:07:35;;;;;;;106.05;98.30;;;;;;;18.13;25.62;102269.22;15412502;28;20061;-58
2022/03/24 17:15:14;;;;;;;153.57;143.77;;;;;;;17.99;27.87;102274.38;15429047;28;20047;-58
2022/03/24 17:22:49;;;;;;;174.45;162.77;;;;;;;17.24;29.78;102277.06;15428983;28;20113;-57
2022/03/24 17:30:22;;;;;;;172.65;161.63;;;;;;;16.67;30.68;102280.25;15448513;28;20440;-58
2022/03/24 17:38:05;;;;;;;185.07;173.20;;;;;;;16.03;31.39;102292.31;15430885;28;20086;-58
2022/03/24 17:45:38;;;;;;;1999.90;999.90;;;;;;;15.54;32.04;102285.19;15421763;28;20053;-60
2022/03/24 17:53:22;;;;;;;1999.90;999.90;;;;;;;15.34;33.22;102289.44;15422380;28;20051;-58
2022/03/24 18:01:14;;;;;;;1999.90;999.90;;;;;;;14.85;33.67;102294.25;15438200;28;20522;-57
2022/03/24 18:08:48;;;;;;;1999.90;999.90;;;;;;;14.40;33.94;102296.28;15418806;28;20053;-55
2022/03/24 18:16:20;;;;;;;1999.90;999.90;;;;;;;14.29;34.00;102306.97;15405744;28;20531;-59
2022/03/24 18:23:54;;;;;;;1999.90;999.90;;;;;;;13.87;35.06;102308.28;15439217;28;20104;-56
2022/03/24 18:31:33;;;;;;;;;;;;;;;13.66;35.44;102318.31;15435456;28;20050;-60
2022/03/24 18:39:13;;;;;;;1999.90;999.90;;;;;;;13.29;36.44;102323.03;15433739;28;19932;-56
2022/03/24 18:46:46;;;;;;;1999.90;999.90;;;;;;;12.67;37.18;102325.34;15414580;28;20078;-57
2022/03/24 18:54:20;;;;;;;1999.90;999.90;;;;;;;12.62;36.88;102340.31;15416007;28;20051;-58
2022/03/24 19:02:17;;;;;;;1999.90;999.90;;;;;;;12.51;37.68;102344.41;15430271;28;20543;-56
2022/03/24 19:09:56;;;;;;;1999.90;999.90;;;;;;;12.20;39.03;102327.31;15417899;28;20107;-57
2022/03/24 19:17:34;;;;;;;1999.90;999.90;;;;;;;11.93;38.87;102344.78;15401342;28;20146;-59
2022/03/24 19:25:10;;;;;;;1999.90;999.90;;;;;;;11.72;39.79;102344.22;15400980;28;20069;-58
2022/03/24 19:32:43;;;;;;;1999.90;999.90;;;;;;;11.55;40.04;102349.50;15433790;28;20101;-56
2022/03/24 19:40:17;;;;;;;1999.90;999.90;;;;;;;11.35;41.03;102349.75;15425788;22;20051;-60
2022/03/24 19:47:49;;;;;;;1999.90;999.90;;;;;;;11.14;41.27;102344.41;15464264;28;20066;-58
2022/03/24 19:55:24;;;;;;;1999.90;999.90;;;;;;;11.03;41.89;102342.03;15479842;28;20077;-58
2022/03/24 20:02:56;;;;;;;1999.90;999.90;;;;;;;10.82;41.84;102344.22;15475004;28;20042;-57
2022/03/24 20:10:30;;;;;;;1999.90;999.90;;;;;;;10.63;42.99;102347.78;15495981;28;20076;-59
2022/03/24 20:18:02;;;;;;;1999.90;999.90;;;;;;;10.37;43.02;102357.50;15489647;28;20062;-60
2022/03/24 20:25:36;;;;;;;1999.90;999.90;;;;;;;10.22;43.07;102352.06;15476173;28;20254;-60
2022/03/24 20:33:28;;;;;;;1999.90;999.90;;;;;;;10.02;43.79;102355.81;15457603;28;20049;-60
2022/03/24 20:41:20;;;;;;;1999.90;999.90;;;;;;;9.76;45.00;102355.94;15482950;28;20064;-59
2022/03/24 20:48:56;;;;;;;1999.90;999.90;;;;;;;9.60;45.17;102348.81;15500044;28;20041;-59
2022/03/24 20:56:32;;;;;;;1999.90;999.90;;;;;;;9.42;45.23;102349.44;15474558;28;20047;-59
2022/03/24 21:04:05;;;;;;;1999.90;999.90;;;;;;;9.25;45.63;102358.16;15484506;28;20408;-60
2022/03/24 21:11:45;;;;;;;1999.90;999.90;;;;;;;9.05;46.07;102352.66;15481154;28;20058;-60
2022/03/24 21:19:19;;;;;;;1999.90;999.90;;;;;;;8.88;46.16;102351.03;15485604;28;20054;-60
2022/03/24 21:26:53;;;;;;;1999.90;999.90;;;;;;;8.65;46.35;102360.81;15483528;28;20411;-59
2022/03/24 21:34:25;;;;;;;1999.90;999.90;;;;;;;8.55;46.44;102360.84;15473220;28;20047;-59
2022/03/24 21:41:58;;;;;;;1999.90;999.90;;;;;;;8.38;46.54;102371.41;15455012;28;20553;-60
2022/03/24 21:49:32;;;;;;;1999.90;999.90;;;;;;;8.24;46.91;102375.84;15495646;28;20430;-61
2022/03/24 21:57:25;;;;;;;1999.90;999.90;;;;;;;8.11;47.15;102372.47;15500631;28;20038;-63
2022/03/24 22:05:06;;;;;;;1999.90;999.90;;;;;;;7.90;47.35;102379.09;15480829;28;20043;-60
2022/03/24 22:12:44;;;;;;;1999.90;999.90;;;;;;;7.72;48.11;102382.41;15504032;28;20085;-58
2022/03/24 22:20:16;;;;;;;1999.90;999.90;;;;;;;7.65;47.88;102379.88;15479544;28;20054;-59
2022/03/24 22:27:59;;;;;;;1999.90;999.90;;;;;;;7.61;48.32;102383.47;15461154;28;20129;-60
2022/03/24 22:35:31;;;;;;;1999.90;999.90;;;;;;;7.42;48.28;102380.34;15482063;28;20034;-58
2022/03/24 22:43:05;;;;;;;1999.90;999.90;;;;;;;7.38;49.55;102380.03;15487672;28;20061;-58
2022/03/24 22:50:38;;;;;;;1999.90;999.90;;;;;;;7.19;49.42;102376.06;15496802;28;20137;-58
2022/03/24 22:58:14;;;;;;;1999.90;999.90;;;;;;;7.02;50.06;102381.81;15491395;28;20042;-59
2022/03/24 23:06:10;;;;;;;1999.90;999.90;;;;;;;6.93;50.47;102388.97;15499424;28;20061;-58
2022/03/24 23:13:44;;;;;;;1999.90;999.90;;;;;;;6.70;50.15;102387.44;15487490;28;20054;-59
2022/03/24 23:21:48;;;;;;;1999.90;999.90;;;;;;;6.67;50.01;102385.22;15484726;28;20082;-59
2022/03/24 23:29:22;;;;;;;1999.90;999.90;;;;;;;6.53;49.64;102384.81;15477124;28;20133;-58
2022/03/24 23:36:55;;;;;;;1999.90;999.90;;;;;;;6.38;49.97;102387.47;15497014;28;20046;-59
2022/03/24 23:44:28;;;;;;;1999.90;999.90;;;;;;;6.18;51.25;102379.81;15497225;28;20046;-59
2022/03/24 23:52:50;;;;;;;1999.90;999.90;;;;;;;6.17;51.77;102380.06;15510803;28;20512;-59
